VDPP/PNH METAR and TAF weather

Enter ICAO airport designator
Station Type Date Time Source
VDPP METAR 2020/07/12 00:00 UTC NOAA

VDPP 120000Z VRB03KT 9999 SCT017 SCT040 28/26 Q1006


Station Type Date Time Source
VDPP Decoded METAR 2020/07/12 00:00 UTC NOAA

Phnom-Penh / Pochentong, Cambodia (VDPP) 11-33N 104-51E 10M
Jul 11, 2020 - 08:00 PM EDT / 2020.07.12 0000 UTC
Wind: Variable at 3 MPH (3 KT):0
Visibility: greater than 7 mile(s):0
Sky conditions: partly cloudy
Temperature: 82 F (28 C)
Dew Point: 78 F (26 C)
Relative Humidity: 88%
Pressure (altimeter): 29.71 in. Hg (1006 hPa)
ob: VDPP 120000Z VRB03KT 9999 SCT017 SCT040 28/26 Q1006
cycle: 0

Station Type Date Time Source
VDPP TAF 2020/07/11 18:00 UTC NOAA

TAF VDPP 111700Z 1118/1212 18007KT 9999 SCT017
TEMPO 1119/1123 SCT015 FEW017CB SCT040

Example: see airport list